Time;durP1;ratioP1;P1;durP2;ratioP2;P2;SDS_P1;SDS_P2;PMS_P1;PMS_P2;Temp;Humidity;BMP_temperature;BMP_pressure;BME280_temperature;BME280_humidity;BME280_pressure;Samples;Min_cycle;Max_cycle;Signal;HPM_P1;HPM_P2
2023/06/18 00:00:20;;;;;;;2.58;1.85;;;13.60;99.90;;;;;;5038599;28;20433;-69
2023/06/18 00:02:49;;;;;;;3.30;1.60;;;13.70;94.90;;;;;;5041083;28;20591;-70
2023/06/18 00:05:17;;;;;;;1.90;1.48;;;13.70;88.10;;;;;;5038324;28;20784;-69
2023/06/18 00:08:08;;;;;;;2.08;1.88;;;13.70;1.00;;;;;;5035485;28;20420;-69
2023/06/18 00:10:35;;;;;;;2.05;1.85;;;13.70;1.00;;;;;;5030616;28;20453;-69
2023/06/18 00:13:02;;;;;;;1.60;1.55;;;13.70;1.00;;;;;;5039497;28;20432;-69
2023/06/18 00:15:28;;;;;;;1.90;1.60;;;13.70;99.90;;;;;;5039130;28;20428;-69
2023/06/18 00:17:55;;;;;;;1.20;1.10;;;13.70;91.70;;;;;;5038393;28;20490;-69
2023/06/18 00:20:24;;;;;;;1.20;1.20;;;13.60;11.90;;;;;;5038531;28;20714;-69
2023/06/18 00:22:53;;;;;;;2.05;1.80;;;13.40;18.60;;;;;;5041894;28;20674;-69
2023/06/18 00:25:20;;;;;;;1.33;1.23;;;13.30;25.60;;;;;;5032774;28;20480;-69
2023/06/18 00:27:47;;;;;;;2.03;1.10;;;13.30;99.90;;;;;;5036065;28;20462;-69
2023/06/18 00:30:14;;;;;;;4.30;1.50;;;13.20;99.90;;;;;;5035256;28;20951;-69
2023/06/18 00:32:43;;;;;;;1.63;1.27;;;13.20;99.90;;;;;;5038860;28;20425;-69
2023/06/18 00:35:11;;;;;;;1.33;1.23;;;13.10;99.90;;;;;;5035458;28;20420;-69
2023/06/18 00:37:39;;;;;;;1.65;1.42;;;13.10;99.90;;;;;;5037818;28;20472;-69
2023/06/18 00:40:12;;;;;;;1.88;1.67;;;13.00;99.90;;;;;;5038156;28;20433;-69
2023/06/18 00:42:41;;;;;;;1.73;1.45;;;12.90;99.90;;;;;;5052793;28;20442;-69
2023/06/18 00:45:09;;;;;;;4.00;2.20;;;12.80;99.90;;;;;;5037739;28;20483;-70
2023/06/18 00:47:44;;;;;;;1.90;1.80;;;12.70;99.90;;;;;;5040418;28;20512;-69
2023/06/18 00:50:15;;;;;;;1.80;1.70;;;12.60;1.00;;;;;;5042315;28;20798;-69
2023/06/18 00:52:47;;;;;;;2.40;1.70;;;12.60;99.90;;;;;;5044103;28;20436;-69
2023/06/18 00:55:21;;;;;;;1.90;1.50;;;12.60;99.90;;;;;;5045355;28;20912;-69
2023/06/18 00:57:49;;;;;;;1.40;1.40;;;12.60;1.00;;;;;;5043077;28;20894;-69
2023/06/18 01:00:20;;;;;;;2.20;1.67;;;12.60;1.00;;;;;;5043757;28;20433;-70
2023/06/18 01:02:49;;;;;;;0.93;0.93;;;12.60;1.00;;;;;;5040292;28;20433;-70
2023/06/18 01:05:20;;;;;;;2.00;1.80;;;12.60;1.00;;;;;;5043102;28;20460;-71
2023/06/18 01:07:47;;;;;;;1.33;1.33;;;12.50;1.00;;;;;;5044196;28;20425;-70
2023/06/18 01:10:17;;;;;;;1.40;1.30;;;12.50;1.00;;;;;;5042222;28;20903;-70
2023/06/18 01:12:48;;;;;;;1.65;1.48;;;12.40;99.90;;;;;;5046533;28;20440;-70
2023/06/18 01:15:17;;;;;;;3.00;1.55;;;12.40;99.90;;;;;;5045798;28;20429;-70
2023/06/18 01:17:49;;;;;;;1.42;1.17;;;12.30;1.00;;;;;;5039752;28;20429;-70
2023/06/18 01:20:17;;;;;;;1.40;1.40;;;12.20;1.00;;;;;;5032566;28;20458;-70
2023/06/18 01:23:03;;;;;;;1.80;1.67;;;12.10;99.90;;;;;;5043435;28;20436;-70
2023/06/18 01:25:36;;;;;;;1.52;1.42;;;12.10;1.00;;;;;;5055714;28;20433;-70
2023/06/18 01:28:07;;;;;;;1.30;1.20;;;12.00;1.00;;;;;;5037402;28;21142;-70
2023/06/18 01:30:36;;;;;;;1.35;1.30;;;12.00;1.00;;;;;;5040680;28;20428;-70
2023/06/18 01:33:03;;;;;;;1.75;1.65;;;12.00;1.00;;;;;;5041022;28;20518;-70
2023/06/18 01:35:30;;;;;;;1.63;1.52;;;11.90;69.00;;;;;;5074298;28;20435;-70
2023/06/18 01:38:09;;;;;;;1.50;1.40;;;11.90;99.90;;;;;;5040128;28;20477;-70
2023/06/18 01:40:47;;;;;;;1.33;1.23;;;11.80;99.90;;;;;;5041343;28;20427;-70
2023/06/18 01:43:30;;;;;;;1.60;1.50;;;11.80;99.90;;;;;;5039083;28;20545;-70
2023/06/18 01:46:04;;;;;;;1.60;1.50;;;11.70;1.00;;;;;;5037583;28;20429;-70
2023/06/18 01:48:37;;;;;;;1.65;1.30;;;11.70;99.90;;;;;;5041624;28;20920;-70
2023/06/18 01:51:06;;;;;;;1.38;1.27;;;11.60;99.90;;;;;;5043620;28;21071;-70
2023/06/18 01:53:34;;;;;;;1.63;1.53;;;11.60;1.00;;;;;;5046434;28;20487;-70
2023/06/18 01:56:02;;;;;;;1.60;1.50;;;11.70;1.00;;;;;;5043085;28;20441;-70
2023/06/18 01:58:33;;;;;;;2.30;1.40;;;11.70;99.90;;;;;;5038173;28;20441;-70
2023/06/18 02:01:03;;;;;;;9.13;1.67;;;11.60;1.00;;;;;;5037883;28;20432;-70
2023/06/18 02:03:30;;;;;;;1.50;1.40;;;11.50;1.00;;;;;;5043762;28;20437;-70
2023/06/18 02:05:57;;;;;;;1.60;1.50;;;11.50;1.00;;;;;;5071751;28;20468;-70
2023/06/18 02:08:25;;;;;;;3.80;1.27;;;11.60;1.00;;;;;;5040264;28;20425;-70
2023/06/18 02:10:54;;;;;;;2.25;1.70;;;11.60;1.00;;;;;;5038196;28;20491;-70
2023/06/18 02:13:21;;;;;;;1.50;1.40;;;11.70;1.00;;;;;;5074579;28;21198;-70
2023/06/18 02:15:48;;;;;;;1.63;1.52;;;11.70;99.90;;;;;;5039526;28;20437;-70
2023/06/18 02:18:15;;;;;;;1.60;1.50;;;11.70;1.00;;;;;;5037614;28;20535;-70
2023/06/18 02:20:42;;;;;;;1.63;1.40;;;11.50;99.90;;;;;;5044156;28;20524;-70
2023/06/18 02:23:09;;;;;;;0.90;0.90;;;11.50;99.90;;;;;;5042501;28;20456;-70
2023/06/18 02:25:35;;;;;;;1.83;1.73;;;11.50;1.00;;;;;;5064775;28;20460;-70
2023/06/18 02:28:04;;;;;;;1.40;1.13;;;11.40;1.00;;;;;;5029942;28;20570;-70
2023/06/18 02:30:31;;;;;;;1.35;1.25;;;11.40;1.00;;;;;;5063453;28;20872;-70
2023/06/18 02:33:02;;;;;;;2.55;2.05;;;11.40;1.00;;;;;;5036518;28;20433;-70
2023/06/18 02:35:29;;;;;;;1.70;1.60;;;11.40;1.00;;;;;;5041413;28;20433;-70
2023/06/18 02:37:56;;;;;;;1.27;1.17;;;11.40;1.00;;;;;;5041537;28;20429;-69
2023/06/18 02:40:23;;;;;;;1.27;1.27;;;11.40;99.90;;;;;;5039453;28;20512;-70
2023/06/18 02:42:52;;;;;;;1.77;1.50;;;11.30;1.00;;;;;;5039164;28;20433;-71
2023/06/18 02:45:20;;;;;;;2.10;1.83;;;11.20;1.00;;;;;;5041325;28;20439;-70
2023/06/18 02:47:48;;;;;;;2.83;1.42;;;11.00;99.90;;;;;;5041833;28;20439;-70
2023/06/18 02:50:16;;;;;;;2.40;1.83;;;11.00;1.00;;;;;;5042502;28;20500;-70
2023/06/18 02:52:45;;;;;;;1.48;1.38;;;10.90;99.90;;;;;;5042940;28;20455;-70
2023/06/18 02:55:12;;;;;;;1.85;1.75;;;11.00;99.90;;;;;;5071184;28;20429;-70
2023/06/18 02:57:41;;;;;;;1.25;1.25;;;11.00;99.90;;;;;;5039533;28;20572;-70
2023/06/18 03:00:12;;;;;;;1.75;1.65;;;11.10;1.00;;;;;;5039057;28;20446;-70
2023/06/18 03:02:41;;;;;;;3.33;1.23;;;11.10;99.90;;;;;;5040245;28;20591;-70
2023/06/18 03:05:09;;;;;;;2.90;1.80;;;11.10;1.00;;;;;;5039530;28;20429;-70
2023/06/18 03:07:36;;;;;;;2.10;1.75;;;11.00;1.00;;;;;;5036396;28;20437;-70
2023/06/18 03:10:03;;;;;;;1.90;1.80;;;11.10;99.90;;;;;;5041144;28;20468;-70
2023/06/18 03:12:36;;;;;;;2.20;1.40;;;11.00;99.90;;;;;;5043183;28;20435;-70
2023/06/18 03:15:05;;;;;;;2.58;2.25;;;11.00;99.90;;;;;;5040717;28;20444;-70
2023/06/18 03:17:32;;;;;;;1.27;1.27;;;11.00;99.90;;;;;;5042429;28;20793;-70
2023/06/18 03:19:59;;;;;;;1.55;1.42;;;10.90;99.90;;;;;;5039665;28;20979;-70
2023/06/18 03:22:26;;;;;;;2.10;2.00;;;10.90;1.00;;;;;;5039536;28;20607;-70
2023/06/18 03:24:53;;;;;;;2.60;2.33;;;10.90;99.90;;;;;;5040178;28;20421;-70
2023/06/18 03:27:19;;;;;;;2.17;1.97;;;11.00;1.00;;;;;;5040250;28;20997;-70
2023/06/18 03:29:46;;;;;;;2.08;1.80;;;11.30;1.00;;;;;;5040723;28;20429;-70
2023/06/18 03:32:13;;;;;;;2.33;2.13;;;11.60;1.00;;;;;;5067505;28;20432;-70
2023/06/18 03:34:42;;;;;;;3.03;2.33;;;11.90;99.90;;;;;;5038177;28;20433;-70
2023/06/18 03:37:09;;;;;;;3.90;1.98;;;12.20;99.90;;;;;;5040850;28;21088;-70
2023/06/18 03:39:36;;;;;;;4.97;2.58;;;12.50;99.90;;;;;;5037135;28;20599;-70
2023/06/18 03:42:02;;;;;;;3.70;1.95;;;12.80;57.80;;;;;;5041589;28;20491;-70
2023/06/18 03:44:29;;;;;;;2.05;1.95;;;12.90;99.90;;;;;;5039846;28;20436;-70
2023/06/18 03:46:56;;;;;;;2.25;2.05;;;13.00;90.10;;;;;;5037910;28;20515;-70
2023/06/18 03:49:23;;;;;;;2.55;2.03;;;13.10;99.90;;;;;;5039891;28;20476;-70
2023/06/18 03:51:50;;;;;;;2.40;1.85;;;13.30;99.90;;;;;;5038637;28;20429;-70
2023/06/18 03:54:17;;;;;;;4.22;2.00;;;13.50;1.00;;;;;;5040302;28;21617;-70
2023/06/18 03:56:44;;;;;;;2.63;2.42;;;13.60;1.00;;;;;;5038183;28;20437;-70
2023/06/18 03:59:12;;;;;;;2.43;2.23;;;13.80;1.00;;;;;;5035134;28;20437;-70
2023/06/18 04:01:45;;;;;;;1.92;1.83;;;14.00;1.00;;;;;;5038546;28;20497;-70
2023/06/18 04:04:12;;;;;;;1.83;1.73;;;14.10;1.00;;;;;;5036498;28;20439;-70
2023/06/18 04:06:39;;;;;;;4.50;2.08;;;14.10;1.00;;;;;;5041196;28;20448;-70
2023/06/18 04:09:05;;;;;;;2.28;2.08;;;14.20;1.00;;;;;;5040808;28;20530;-70
2023/06/18 04:11:32;;;;;;;2.07;1.70;;;14.30;1.00;;;;;;5043100;28;20433;-70
2023/06/18 04:13:59;;;;;;;3.80;2.30;;;14.30;1.00;;;;;;5040105;28;20796;-70
2023/06/18 04:16:26;;;;;;;1.80;1.60;;;14.40;1.00;;;;;;5040593;28;20563;-70
2023/06/18 04:18:57;;;;;;;2.05;1.90;;;14.50;99.90;;;;;;5039541;28;20508;-70
2023/06/18 04:21:24;;;;;;;1.53;1.30;;;14.60;99.90;;;;;;5039943;28;20508;-70
2023/06/18 04:23:53;;;;;;;2.00;1.80;;;14.70;99.90;;;;;;5039086;28;20433;-70
2023/06/18 04:26:21;;;;;;;2.08;1.98;;;14.90;99.90;;;;;;5031168;28;20867;-70
2023/06/18 04:28:48;;;;;;;2.10;1.90;;;15.00;99.90;;;;;;5034838;28;20627;-70
2023/06/18 04:31:15;;;;;;;2.35;1.75;;;15.10;99.90;;;;;;5038133;28;20908;-70
2023/06/18 04:33:41;;;;;;;4.32;1.92;;;15.20;99.90;;;;;;5064418;28;20425;-70
2023/06/18 04:36:09;;;;;;;1.92;1.73;;;15.20;99.90;;;;;;5038731;28;20436;-70
2023/06/18 04:38:37;;;;;;;2.10;1.90;;;15.20;99.90;;;;;;5039510;28;20800;-70
2023/06/18 04:41:03;;;;;;;2.67;2.47;;;15.20;99.90;;;;;;5038679;28;20429;-70
2023/06/18 04:43:30;;;;;;;2.38;2.25;;;15.20;99.90;;;;;;5070558;28;20968;-70
2023/06/18 04:46:00;;;;;;;1.35;1.35;;;15.40;99.90;;;;;;5032115;28;20439;-70
2023/06/18 04:48:27;;;;;;;2.58;1.77;;;15.80;99.90;;;;;;5038881;28;21427;-70
2023/06/18 04:50:54;;;;;;;1.73;1.63;;;16.20;99.90;;;;;;5039512;28;20945;-70
2023/06/18 04:53:21;;;;;;;1.90;1.70;;;16.70;99.90;;;;;;5039727;28;20517;-70
2023/06/18 04:55:48;;;;;;;1.40;1.40;;;17.30;99.90;;;;;;5036933;28;20461;-70
2023/06/18 04:58:15;;;;;;;2.08;1.77;;;17.90;99.90;;;;;;5064354;28;20445;-70
2023/06/18 05:00:48;;;;;;;2.78;1.80;;;18.20;99.90;;;;;;5037543;28;20796;-70
2023/06/18 05:03:17;;;;;;;2.40;1.80;;;18.50;99.90;;;;;;5039233;28;20437;-70
2023/06/18 05:05:44;;;;;;;1.67;1.58;;;18.90;99.90;;;;;;5071134;28;20429;-70
2023/06/18 05:08:11;;;;;;;2.47;1.83;;;19.20;99.90;;;;;;5039467;28;20437;-70
2023/06/18 05:10:38;;;;;;;3.00;1.80;;;19.50;99.90;;;;;;5041488;28;20433;-70
2023/06/18 05:13:07;;;;;;;2.50;1.88;;;19.80;96.30;;;;;;5034656;28;20479;-71
2023/06/18 05:15:34;;;;;;;2.60;1.88;;;20.10;93.60;;;;;;5038672;28;20425;-70
2023/06/18 05:18:03;;;;;;;1.80;1.70;;;20.30;91.90;;;;;;5038147;28;20429;-70
2023/06/18 05:20:33;;;;;;;2.58;2.20;;;20.50;89.90;;;;;;5038072;28;20444;-70
2023/06/18 05:23:00;;;;;;;2.90;1.80;;;20.70;88.60;;;;;;5037842;28;20520;-71
2023/06/18 05:25:27;;;;;;;3.73;2.33;;;21.10;87.10;;;;;;5038344;28;20514;-71
2023/06/18 05:27:56;;;;;;;3.45;2.13;;;21.50;84.20;;;;;;5040166;28;20532;-71
2023/06/18 05:30:23;;;;;;;1.58;1.48;;;21.80;82.30;;;;;;5039942;28;21014;-71
2023/06/18 05:32:50;;;;;;;1.63;1.52;;;22.10;80.20;;;;;;5039414;28;20440;-71
2023/06/18 05:35:17;;;;;;;2.00;1.80;;;22.20;91.20;;;;;;5038413;28;20440;-70
2023/06/18 05:37:44;;;;;;;2.30;2.10;;;22.40;77.00;;;;;;5040380;28;20494;-71
2023/06/18 05:40:11;;;;;;;2.22;2.03;;;22.30;73.90;;;;;;5042972;28;20429;-70
2023/06/18 05:42:41;;;;;;;2.33;1.93;;;22.00;70.40;;;;;;5043866;28;20436;-70
2023/06/18 05:45:08;;;;;;;2.00;1.90;;;22.00;69.00;;;;;;5042241;28;20425;-70
2023/06/18 05:47:35;;;;;;;1.73;1.63;;;22.20;69.80;;;;;;5042648;28;20444;-70
2023/06/18 05:50:03;;;;;;;2.20;1.60;;;22.40;69.30;;;;;;5041285;28;20431;-70
2023/06/18 05:52:32;;;;;;;1.70;1.60;;;22.60;69.20;;;;;;5041801;28;20923;-70
2023/06/18 05:54:59;;;;;;;2.35;1.63;;;22.90;69.80;;;;;;5042276;28;20482;-70
2023/06/18 05:57:27;;;;;;;2.33;2.10;;;23.10;69.70;;;;;;5041194;28;20852;-70
2023/06/18 05:59:54;;;;;;;2.23;1.90;;;23.20;69.50;;;;;;5041063;28;20542;-70
2023/06/18 06:02:20;;;;;;;2.00;1.90;;;23.50;70.70;;;;;;5038278;28;20875;-71
2023/06/18 06:04:47;;;;;;;1.70;1.60;;;23.50;68.50;;;;;;5039895;28;20439;-71
2023/06/18 06:07:14;;;;;;;2.50;1.90;;;23.50;67.40;;;;;;5041524;28;20486;-71
2023/06/18 06:09:41;;;;;;;2.47;1.92;;;23.30;64.50;;;;;;5039988;28;20918;-71
2023/06/18 06:12:08;;;;;;;2.10;2.00;;;23.10;61.70;;;;;;5044087;28;20436;-71
2023/06/18 06:14:35;;;;;;;2.25;1.80;;;22.80;75.90;;;;;;5068205;28;20511;-71
2023/06/18 06:17:02;;;;;;;1.73;1.63;;;22.70;60.30;;;;;;5040575;28;20436;-71
2023/06/18 06:19:29;;;;;;;1.95;1.77;;;22.80;60.70;;;;;;5071901;28;21121;-71
2023/06/18 06:21:55;;;;;;;2.28;2.08;;;23.40;64.30;;;;;;5041947;28;20513;-71
2023/06/18 06:24:23;;;;;;;2.08;1.67;;;23.70;65.10;;;;;;5038681;28;20511;-70
2023/06/18 06:26:50;;;;;;;1.80;1.70;;;24.10;67.10;;;;;;5041235;28;20435;-70
2023/06/18 06:29:17;;;;;;;2.22;2.05;;;24.70;69.80;;;;;;5039499;28;20518;-70
2023/06/18 06:31:43;;;;;;;1.70;1.60;;;25.00;69.70;;;;;;5042356;28;20459;-70
2023/06/18 06:34:10;;;;;;;1.60;1.33;;;24.70;66.30;;;;;;5030170;28;20985;-70
2023/06/18 06:36:38;;;;;;;1.60;1.50;;;24.80;65.30;;;;;;5033399;28;20504;-70
2023/06/18 06:39:05;;;;;;;1.70;1.50;;;25.10;66.00;;;;;;5031615;28;20428;-69
2023/06/18 06:41:32;;;;;;;1.77;1.60;;;25.20;65.20;;;;;;5032770;28;20436;-69
2023/06/18 06:43:59;;;;;;;2.08;1.88;;;25.20;64.40;;;;;;5032654;28;20429;-70
2023/06/18 06:46:27;;;;;;;2.30;2.03;;;25.30;65.10;;;;;;5032898;28;20582;-70
2023/06/18 06:48:54;;;;;;;2.97;1.70;;;25.30;63.00;;;;;;5032580;28;20439;-70
2023/06/18 06:51:21;;;;;;;3.28;1.50;;;25.40;63.80;;;;;;5031851;28;20988;-70
2023/06/18 06:53:48;;;;;;;1.58;1.48;;;25.70;64.60;;;;;;5030586;28;20432;-70
2023/06/18 06:56:16;;;;;;;1.90;1.80;;;26.00;65.80;;;;;;5032132;28;20466;-70
2023/06/18 06:58:45;;;;;;;1.87;1.70;;;26.10;64.60;;;;;;5031071;28;20532;-70
2023/06/18 07:01:12;;;;;;;2.00;1.80;;;26.30;66.10;;;;;;5061863;28;20429;-70
2023/06/18 07:03:39;;;;;;;2.25;1.92;;;26.80;67.60;;;;;;5034202;28;20433;-70
2023/06/18 07:06:06;;;;;;;2.05;1.88;;;26.80;65.50;;;;;;5039395;28;20432;-70
2023/06/18 07:08:33;;;;;;;1.65;1.55;;;26.70;64.40;;;;;;5039008;28;20433;-70
2023/06/18 07:11:00;;;;;;;1.58;1.58;;;26.20;61.50;;;;;;5071560;28;20459;-70
2023/06/18 07:13:27;;;;;;;1.58;1.48;;;26.60;61.60;;;;;;5072988;28;22442;-70
2023/06/18 07:15:53;;;;;;;1.90;1.80;;;26.90;62.80;;;;;;5072016;28;20439;-70
2023/06/18 07:18:20;;;;;;;1.67;1.60;;;27.20;63.60;;;;;;5042033;28;20444;-70
2023/06/18 07:20:47;;;;;;;1.63;1.58;;;27.00;74.20;;;;;;5070302;28;20975;-70
2023/06/18 07:23:14;;;;;;;2.13;1.70;;;26.90;57.90;;;;;;5044466;28;20433;-70
2023/06/18 07:25:44;;;;;;;1.90;1.80;;;27.00;58.00;;;;;;5040733;28;20898;-70
2023/06/18 07:28:13;;;;;;;1.55;1.45;;;27.30;58.20;;;;;;5038049;28;20439;-70
2023/06/18 07:30:40;;;;;;;2.00;1.38;;;27.60;59.10;;;;;;5070455;28;20857;-70
2023/06/18 07:33:07;;;;;;;1.85;1.75;;;27.70;59.50;;;;;;5039049;28;20618;-71
2023/06/18 07:35:36;;;;;;;1.80;1.70;;;28.20;62.20;;;;;;5075342;28;20746;-70
2023/06/18 07:38:03;;;;;;;1.98;1.77;;;28.80;63.90;;;;;;5068837;28;20992;-71
2023/06/18 07:40:33;;;;;;;1.73;1.63;;;29.00;64.90;;;;;;5040209;28;20460;-70
2023/06/18 07:43:01;;;;;;;2.00;1.90;;;29.00;64.30;;;;;;5037169;28;20487;-71
2023/06/18 07:45:28;;;;;;;1.90;1.80;;;28.90;62.00;;;;;;5040446;28;20433;-71
2023/06/18 07:47:54;;;;;;;1.80;1.70;;;28.90;61.10;;;;;;5040577;28;21003;-70
2023/06/18 07:50:22;;;;;;;1.80;1.70;;;28.60;60.70;;;;;;5037771;28;20520;-70
2023/06/18 07:52:49;;;;;;;2.20;1.83;;;28.70;60.90;;;;;;5039336;28;20507;-70
2023/06/18 07:55:16;;;;;;;3.35;1.83;;;28.80;61.00;;;;;;5039690;28;20483;-70
2023/06/18 07:57:42;;;;;;;2.25;1.88;;;28.50;59.80;;;;;;5039908;28;20464;-70
2023/06/18 08:00:13;;;;;;;2.80;2.33;;;28.60;59.10;;;;;;5038344;28;20449;-70
2023/06/18 08:02:39;;;;;;;1.60;1.50;;;28.10;56.90;;;;;;5038164;28;20443;-71
2023/06/18 08:05:07;;;;;;;1.92;1.80;;;28.70;58.80;;;;;;5039849;28;21020;-70
2023/06/18 08:07:36;;;;;;;2.05;1.95;;;29.00;60.00;;;;;;5039161;28;20520;-70
2023/06/18 08:10:03;;;;;;;1.80;1.70;;;29.30;63.30;;;;;;5038052;28;20445;-71
2023/06/18 08:12:30;;;;;;;1.83;1.73;;;29.20;61.70;;;;;;5042045;28;20425;-71
2023/06/18 08:14:57;;;;;;;2.63;2.23;;;29.90;64.40;;;;;;5039950;28;20489;-71
2023/06/18 08:17:23;;;;;;;1.77;1.67;;;30.50;67.10;;;;;;5038520;28;20450;-71
2023/06/18 08:19:50;;;;;;;2.50;2.10;;;31.00;68.80;;;;;;5036513;28;20441;-70
2023/06/18 08:22:17;;;;;;;1.92;1.83;;;30.40;65.80;;;;;;5039969;28;20967;-71
2023/06/18 08:24:45;;;;;;;1.83;1.73;;;30.10;63.40;;;;;;5040098;28;20641;-71
2023/06/18 08:27:13;;;;;;;1.92;1.83;;;30.40;64.60;;;;;;5039675;28;23107;-71
2023/06/18 08:29:39;;;;;;;1.95;1.85;;;30.60;65.60;;;;;;5035490;28;20437;-70
2023/06/18 08:32:07;;;;;;;1.80;1.60;;;30.40;64.40;;;;;;5037698;28;20446;-71
2023/06/18 08:34:38;;;;;;;2.28;1.95;;;30.60;64.70;;;;;;5065117;28;20427;-71
2023/06/18 08:37:05;;;;;;;2.10;2.00;;;31.10;66.90;;;;;;5037179;28;20466;-71
2023/06/18 08:39:31;;;;;;;2.78;2.58;;;31.60;69.40;;;;;;5038508;28;20974;-72
2023/06/18 08:42:01;;;;;;;2.33;1.83;;;31.70;69.60;;;;;;5035958;28;21637;-72
2023/06/18 08:44:33;;;;;;;2.13;1.92;;;31.70;69.40;;;;;;5033537;28;21017;-72
2023/06/18 08:47:03;;;;;;;1.87;1.77;;;31.90;69.60;;;;;;5034184;28;20459;-71
2023/06/18 08:49:31;;;;;;;2.15;2.05;;;32.10;69.90;;;;;;5032477;28;20950;-72
2023/06/18 08:52:05;;;;;;;1.83;1.73;;;32.20;71.00;;;;;;5033027;28;20438;-72
2023/06/18 08:54:34;;;;;;;1.75;1.73;;;32.20;70.00;;;;;;5033831;28;20942;-71
2023/06/18 08:57:14;;;;;;;2.35;2.15;;;32.40;70.70;;;;;;5033780;28;20439;-71
2023/06/18 08:59:44;;;;;;;2.20;2.00;;;31.80;67.60;;;;;;5028679;28;21059;-71
2023/06/18 09:02:18;;;;;;;1.92;1.83;;;31.60;67.00;;;;;;5029555;28;20941;-71
2023/06/18 09:04:45;;;;;;;1.85;1.75;;;31.70;68.10;;;;;;5027052;28;20441;-72
2023/06/18 09:07:12;;;;;;;2.10;1.90;;;32.00;68.70;;;;;;5034911;28;20503;-72
2023/06/18 09:09:39;;;;;;;1.58;1.58;;;32.10;69.20;;;;;;5033270;28;20447;-71
2023/06/18 09:12:06;;;;;;;1.70;1.60;;;31.90;68.80;;;;;;5042000;28;20444;-71
2023/06/18 09:14:33;;;;;;;1.73;1.63;;;32.20;68.00;;;;;;5035093;28;20432;-71
2023/06/18 09:17:00;;;;;;;2.00;1.90;;;32.50;70.20;;;;;;5036763;28;20515;-71
2023/06/18 09:19:27;;;;;;;2.10;1.90;;;32.50;70.20;;;;;;5039180;28;20654;-71
2023/06/18 09:21:54;;;;;;;1.60;1.50;;;32.90;87.50;;;;;;5041772;28;20440;-71
2023/06/18 09:24:22;;;;;;;1.90;1.80;;;32.90;71.70;;;;;;5043571;28;20470;-71
2023/06/18 09:27:03;;;;;;;2.00;1.90;;;32.70;70.20;;;;;;5041043;28;20448;-71
2023/06/18 09:29:33;;;;;;;1.70;1.60;;;32.70;71.50;;;;;;5038663;28;20436;-71
2023/06/18 09:32:10;;;;;;;1.85;1.75;;;32.90;70.80;;;;;;5044057;28;20421;-71
2023/06/18 09:34:38;;;;;;;3.22;1.80;;;32.90;79.80;;;;;;5035927;28;20429;-71
2023/06/18 09:37:06;;;;;;;1.92;1.73;;;32.50;68.10;;;;;;5072517;28;20441;-71
2023/06/18 09:39:35;;;;;;;2.53;1.90;;;32.80;69.70;;;;;;5039092;28;20437;-71
2023/06/18 09:42:07;;;;;;;2.42;1.77;;;32.80;69.70;;;;;;5040588;28;20845;-71
2023/06/18 09:44:35;;;;;;;2.45;2.05;;;33.00;69.80;;;;;;5038187;28;20439;-71
2023/06/18 09:47:10;;;;;;;1.80;1.70;;;33.10;70.90;;;;;;5039093;28;20436;-71
2023/06/18 09:49:41;;;;;;;2.22;2.03;;;33.50;72.00;;;;;;5042584;28;20437;-71
2023/06/18 09:52:08;;;;;;;1.63;1.60;;;33.20;70.60;;;;;;5038012;28;20715;-71
2023/06/18 09:54:43;;;;;;;1.70;1.60;;;33.10;70.70;;;;;;5075101;28;20429;-71
2023/06/18 09:57:11;;;;;;;2.03;1.83;;;33.20;70.80;;;;;;5040506;28;20442;-71
2023/06/18 09:59:38;;;;;;;2.78;1.70;;;32.70;67.00;;;;;;5040481;28;20437;-71
2023/06/18 10:02:06;;;;;;;1.98;1.88;;;32.00;63.20;;;;;;5070245;28;20421;-70
2023/06/18 10:04:33;;;;;;;2.05;1.95;;;31.50;60.30;;;;;;5042780;28;20465;-71
2023/06/18 10:07:05;;;;;;;1.55;1.45;;;31.40;59.70;;;;;;5042987;28;20684;-71
2023/06/18 10:09:35;;;;;;;1.92;1.83;;;31.00;59.50;;;;;;5038347;28;20429;-71
2023/06/18 10:12:03;;;;;;;1.90;1.80;;;31.50;59.80;;;;;;5045174;28;20520;-71
2023/06/18 10:14:31;;;;;;;2.55;1.73;;;31.90;61.90;;;;;;5039083;28;20429;-71
2023/06/18 10:17:25;;;;;;;2.38;1.70;;;32.00;62.80;;;;;;5041223;28;20830;-70
2023/06/18 10:20:05;;;;;;;2.00;1.50;;;32.40;65.00;;;;;;5042457;28;20472;-71
2023/06/18 10:22:57;;;;;;;1.95;1.85;;;32.80;66.00;;;;;;5039625;28;20465;-73
2023/06/18 10:25:25;;;;;;;2.40;2.05;;;33.20;68.00;;;;;;5039579;28;20433;-73
2023/06/18 10:27:53;;;;;;;2.17;2.07;;;33.50;70.20;;;;;;5040259;28;20425;-73
2023/06/18 10:30:20;;;;;;;1.70;1.60;;;34.00;72.80;;;;;;5039278;28;20928;-74
2023/06/18 10:32:47;;;;;;;1.98;1.83;;;34.50;75.00;;;;;;5040124;28;20429;-73
2023/06/18 10:35:14;;;;;;;2.13;2.03;;;34.70;76.60;;;;;;5042093;28;21036;-73
2023/06/18 10:37:43;;;;;;;1.77;1.67;;;34.40;75.20;;;;;;5042516;28;20429;-72
2023/06/18 10:40:11;;;;;;;1.90;1.80;;;33.80;70.60;;;;;;5042377;28;20444;-73
2023/06/18 10:42:38;;;;;;;2.33;1.90;;;33.60;69.20;;;;;;5042932;28;20457;-73
2023/06/18 10:45:12;;;;;;;1.92;1.83;;;33.90;70.10;;;;;;5041964;28;20504;-73
2023/06/18 10:47:40;;;;;;;2.08;1.98;;;33.90;70.50;;;;;;5039596;28;20513;-73
2023/06/18 10:50:07;;;;;;;1.85;1.75;;;33.80;69.80;;;;;;5042678;28;20467;-73
2023/06/18 10:52:45;;;;;;;2.53;2.25;;;33.50;67.90;;;;;;5042179;28;20436;-73
2023/06/18 10:55:27;;;;;;;1.60;1.50;;;33.30;66.20;;;;;;5041293;28;20479;-73
2023/06/18 10:58:04;;;;;;;1.70;1.60;;;33.40;66.00;;;;;;5036679;28;20796;-73
2023/06/18 11:00:40;;;;;;;1.95;1.67;;;34.00;68.90;;;;;;5039098;28;22504;-72
2023/06/18 11:03:17;;;;;;;1.45;1.38;;;34.00;69.00;;;;;;5041394;28;20435;-72
2023/06/18 11:05:49;;;;;;;1.45;1.38;;;34.30;70.20;;;;;;5028629;28;20433;-72
2023/06/18 11:08:26;;;;;;;1.73;1.60;;;34.40;70.10;;;;;;5039387;28;20499;-72
2023/06/18 11:11:02;;;;;;;2.00;1.75;;;34.40;69.30;;;;;;5041166;28;20424;-73
2023/06/18 11:13:33;;;;;;;1.63;1.53;;;34.80;71.30;;;;;;5038491;28;20474;-73
2023/06/18 11:16:12;;;;;;;1.60;1.60;;;35.00;72.20;;;;;;5073307;28;20437;-73
2023/06/18 11:18:43;;;;;;;1.50;1.50;;;35.00;73.30;;;;;;5040454;28;20785;-72
2023/06/18 11:21:18;;;;;;;1.40;1.30;;;34.50;70.50;;;;;;5040710;28;21009;-72
2023/06/18 11:23:49;;;;;;;3.45;1.45;;;34.40;69.60;;;;;;5040150;28;20918;-72
2023/06/18 11:26:17;;;;;;;2.77;1.73;;;34.00;67.10;;;;;;5039186;28;20433;-72
2023/06/18 11:28:46;;;;;;;1.75;1.65;;;33.60;65.60;;;;;;5038860;28;20524;-72
2023/06/18 11:31:13;;;;;;;1.80;1.70;;;34.20;68.50;;;;;;5039377;28;20435;-72
2023/06/18 11:33:46;;;;;;;1.50;1.40;;;33.20;62.90;;;;;;5038312;28;20460;-72
2023/06/18 11:36:17;;;;;;;1.42;1.33;;;32.60;59.00;;;;;;5039948;28;20425;-73
2023/06/18 11:38:47;;;;;;;1.88;1.77;;;32.50;57.30;;;;;;5035473;28;20435;-73
2023/06/18 11:41:21;;;;;;;1.83;1.58;;;33.00;61.60;;;;;;5041654;28;20436;-72
2023/06/18 11:43:52;;;;;;;2.50;1.73;;;33.30;62.20;;;;;;5039440;28;20501;-73
2023/06/18 11:46:37;;;;;;;1.88;1.52;;;33.60;63.40;;;;;;5069633;28;20983;-73
2023/06/18 11:49:12;;;;;;;1.40;1.30;;;34.10;66.40;;;;;;5038288;28;20510;-73
2023/06/18 11:51:39;;;;;;;3.30;1.20;;;34.20;66.10;;;;;;5038203;28;20437;-71
2023/06/18 11:54:09;;;;;;;1.48;1.30;;;34.20;66.90;;;;;;5040438;28;20433;-73
2023/06/18 11:56:37;;;;;;;1.80;1.70;;;33.80;64.60;;;;;;5043887;28;20421;-73
2023/06/18 11:59:04;;;;;;;1.77;1.67;;;33.40;63.00;;;;;;5038398;28;20804;-73
2023/06/18 12:01:32;;;;;;;1.55;1.45;;;33.30;62.50;;;;;;5071839;28;20429;-73
2023/06/18 12:04:04;;;;;;;1.30;1.20;;;33.80;64.00;;;;;;5036653;28;20946;-74
2023/06/18 12:06:31;;;;;;;1.23;1.23;;;34.30;67.10;;;;;;5037254;28;20433;-73
2023/06/18 12:09:08;;;;;;;2.05;1.70;;;34.80;69.50;;;;;;5038085;28;20424;-73
2023/06/18 12:11:56;;;;;;;1.47;1.47;;;35.00;71.50;;;;;;5038978;28;20464;-72
2023/06/18 12:14:44;;;;;;;1.77;1.38;;;34.60;69.50;;;;;;5033703;28;20515;-72
2023/06/18 12:17:32;;;;;;;1.80;1.70;;;34.00;65.00;;;;;;5036560;28;20429;-72
2023/06/18 12:20:11;;;;;;;1.80;1.48;;;34.00;65.30;;;;;;5034121;28;20452;-73
2023/06/18 12:22:39;;;;;;;1.27;1.20;;;33.70;63.50;;;;;;5032768;28;20438;-71
2023/06/18 12:25:13;;;;;;;1.10;1.10;;;33.60;63.00;;;;;;5038464;28;20851;-72
2023/06/18 12:27:41;;;;;;;2.53;1.30;;;33.30;61.30;;;;;;5036723;28;20483;-72
2023/06/18 12:30:10;;;;;;;1.25;1.23;;;33.50;62.60;;;;;;5035323;28;20954;-72
2023/06/18 12:32:37;;;;;;;1.88;1.77;;;33.90;63.70;;;;;;5034696;28;20494;-72
2023/06/18 12:35:17;;;;;;;1.30;1.30;;;34.00;64.60;;;;;;5041436;28;20598;-72
2023/06/18 12:37:46;;;;;;;1.10;1.10;;;34.30;66.80;;;;;;5039621;28;20437;-72
2023/06/18 12:40:19;;;;;;;2.05;1.40;;;34.30;66.40;;;;;;5036678;28;21431;-71
2023/06/18 12:42:49;;;;;;;1.42;1.33;;;33.80;64.50;;;;;;5034411;28;20947;-72
2023/06/18 12:45:26;;;;;;;1.70;1.42;;;33.80;64.30;;;;;;5036918;28;20563;-71
2023/06/18 12:47:57;;;;;;;1.67;1.57;;;33.40;61.80;;;;;;5068126;28;20433;-71
2023/06/18 12:50:27;;;;;;;1.10;1.10;;;33.30;61.10;;;;;;5040562;28;20487;-72
2023/06/18 12:52:53;;;;;;;1.40;1.40;;;33.10;59.50;;;;;;5036720;28;20429;-71
2023/06/18 12:55:22;;;;;;;1.58;1.48;;;33.20;60.30;;;;;;5037837;28;20461;-72
2023/06/18 12:57:50;;;;;;;2.05;1.17;;;33.10;61.10;;;;;;5037518;28;20932;-72